sensor_id;sensor_type;location;lat;lon;timestamp;temperature;humidity
24410;DHT22;12543;53.364;-1.504;2023-05-02T00:00:50;12.10;99.90
24410;DHT22;12543;53.364;-1.504;2023-05-02T00:03:17;12.10;99.90
24410;DHT22;12543;53.364;-1.504;2023-05-02T00:05:45;12.00;99.90
24410;DHT22;12543;53.364;-1.504;2023-05-02T00:08:11;12.10;99.90
24410;DHT22;12543;53.364;-1.504;2023-05-02T00:10:39;12.00;99.90
24410;DHT22;12543;53.364;-1.504;2023-05-02T00:13:06;12.00;99.90
24410;DHT22;12543;53.364;-1.504;2023-05-02T00:15:34;12.00;99.90
24410;DHT22;12543;53.364;-1.504;2023-05-02T00:18:01;12.00;99.90
24410;DHT22;12543;53.364;-1.504;2023-05-02T00:20:29;12.00;99.90
24410;DHT22;12543;53.364;-1.504;2023-05-02T00:22:55;12.00;99.90
24410;DHT22;12543;53.364;-1.504;2023-05-02T00:25:23;12.00;99.90
24410;DHT22;12543;53.364;-1.504;2023-05-02T00:27:49;12.00;99.90
24410;DHT22;12543;53.364;-1.504;2023-05-02T00:30:17;12.00;99.90
24410;DHT22;12543;53.364;-1.504;2023-05-02T00:32:44;11.90;99.90
24410;DHT22;12543;53.364;-1.504;2023-05-02T00:35:11;11.90;99.90
24410;DHT22;12543;53.364;-1.504;2023-05-02T00:37:38;11.90;99.90
24410;DHT22;12543;53.364;-1.504;2023-05-02T00:40:07;11.90;99.90
24410;DHT22;12543;53.364;-1.504;2023-05-02T00:42:34;11.90;99.90
24410;DHT22;12543;53.364;-1.504;2023-05-02T00:45:03;11.90;99.90
24410;DHT22;12543;53.364;-1.504;2023-05-02T00:47:32;11.80;99.90
24410;DHT22;12543;53.364;-1.504;2023-05-02T00:50:00;11.80;99.90
24410;DHT22;12543;53.364;-1.504;2023-05-02T00:52:28;11.80;99.90
24410;DHT22;12543;53.364;-1.504;2023-05-02T00:54:55;11.70;99.90
24410;DHT22;12543;53.364;-1.504;2023-05-02T00:57:22;11.70;99.90
24410;DHT22;12543;53.364;-1.504;2023-05-02T00:59:49;11.70;99.90
24410;DHT22;12543;53.364;-1.504;2023-05-02T01:13:11;11.60;99.90
24410;DHT22;12543;53.364;-1.504;2023-05-02T01:15:39;11.60;99.90
24410;DHT22;12543;53.364;-1.504;2023-05-02T01:18:11;11.60;99.90
24410;DHT22;12543;53.364;-1.504;2023-05-02T01:20:39;11.60;99.90
24410;DHT22;12543;53.364;-1.504;2023-05-02T01:23:21;11.60;99.90
24410;DHT22;12543;53.364;-1.504;2023-05-02T01:28:30;11.50;99.90
24410;DHT22;12543;53.364;-1.504;2023-05-02T01:31:02;11.50;99.90
24410;DHT22;12543;53.364;-1.504;2023-05-02T01:33:30;11.50;99.90
24410;DHT22;12543;53.364;-1.504;2023-05-02T01:35:57;11.50;99.90
24410;DHT22;12543;53.364;-1.504;2023-05-02T01:38:26;11.50;99.90
24410;DHT22;12543;53.364;-1.504;2023-05-02T01:40:54;11.40;99.90
24410;DHT22;12543;53.364;-1.504;2023-05-02T01:43:22;11.40;99.90
24410;DHT22;12543;53.364;-1.504;2023-05-02T01:45:51;11.30;99.90
24410;DHT22;12543;53.364;-1.504;2023-05-02T01:48:19;11.30;99.90
24410;DHT22;12543;53.364;-1.504;2023-05-02T01:50:46;11.30;99.90
24410;DHT22;12543;53.364;-1.504;2023-05-02T01:53:14;11.20;99.90
24410;DHT22;12543;53.364;-1.504;2023-05-02T01:55:42;11.20;99.90
24410;DHT22;12543;53.364;-1.504;2023-05-02T01:58:12;11.20;99.90
24410;DHT22;12543;53.364;-1.504;2023-05-02T02:00:39;11.10;99.90
24410;DHT22;12543;53.364;-1.504;2023-05-02T02:03:07;11.10;99.90
24410;DHT22;12543;53.364;-1.504;2023-05-02T02:05:35;11.10;99.90
24410;DHT22;12543;53.364;-1.504;2023-05-02T02:08:03;11.00;99.90
24410;DHT22;12543;53.364;-1.504;2023-05-02T02:10:39;11.00;99.90
24410;DHT22;12543;53.364;-1.504;2023-05-02T02:13:54;11.00;99.90
24410;DHT22;12543;53.364;-1.504;2023-05-02T02:15:56;11.00;99.90
24410;DHT22;12543;53.364;-1.504;2023-05-02T02:18:24;10.90;99.90
24410;DHT22;12543;53.364;-1.504;2023-05-02T02:20:53;11.00;99.90
24410;DHT22;12543;53.364;-1.504;2023-05-02T02:23:21;10.90;99.90
24410;DHT22;12543;53.364;-1.504;2023-05-02T02:25:52;10.90;99.90
24410;DHT22;12543;53.364;-1.504;2023-05-02T02:28:20;10.90;99.90
24410;DHT22;12543;53.364;-1.504;2023-05-02T02:30:47;10.90;99.90
24410;DHT22;12543;53.364;-1.504;2023-05-02T02:33:17;10.90;99.90
24410;DHT22;12543;53.364;-1.504;2023-05-02T02:35:49;10.90;99.90
24410;DHT22;12543;53.364;-1.504;2023-05-02T02:38:22;10.90;99.90
24410;DHT22;12543;53.364;-1.504;2023-05-02T02:40:54;10.90;99.90
24410;DHT22;12543;53.364;-1.504;2023-05-02T02:48:37;10.90;99.90
24410;DHT22;12543;53.364;-1.504;2023-05-02T02:54:22;10.90;99.90
24410;DHT22;12543;53.364;-1.504;2023-05-02T02:56:44;10.90;99.90
24410;DHT22;12543;53.364;-1.504;2023-05-02T03:01:43;10.80;99.90
24410;DHT22;12543;53.364;-1.504;2023-05-02T03:04:12;10.80;99.90
24410;DHT22;12543;53.364;-1.504;2023-05-02T03:06:41;10.80;99.90
24410;DHT22;12543;53.364;-1.504;2023-05-02T03:09:16;10.80;99.90
24410;DHT22;12543;53.364;-1.504;2023-05-02T03:11:47;10.80;99.90
24410;DHT22;12543;53.364;-1.504;2023-05-02T03:14:14;10.80;99.90
24410;DHT22;12543;53.364;-1.504;2023-05-02T03:16:41;10.80;99.90
24410;DHT22;12543;53.364;-1.504;2023-05-02T03:19:13;10.80;99.90
24410;DHT22;12543;53.364;-1.504;2023-05-02T03:21:40;10.80;99.90
24410;DHT22;12543;53.364;-1.504;2023-05-02T03:24:15;10.70;99.90
24410;DHT22;12543;53.364;-1.504;2023-05-02T03:26:45;10.70;99.90
24410;DHT22;12543;53.364;-1.504;2023-05-02T03:29:15;10.80;99.90
24410;DHT22;12543;53.364;-1.504;2023-05-02T03:31:42;10.80;99.90
24410;DHT22;12543;53.364;-1.504;2023-05-02T03:34:10;10.80;99.90
24410;DHT22;12543;53.364;-1.504;2023-05-02T03:36:37;10.70;99.90
24410;DHT22;12543;53.364;-1.504;2023-05-02T03:39:05;10.70;99.90
24410;DHT22;12543;53.364;-1.504;2023-05-02T03:41:33;10.70;99.90
24410;DHT22;12543;53.364;-1.504;2023-05-02T03:44:05;10.70;99.90
24410;DHT22;12543;53.364;-1.504;2023-05-02T03:46:33;10.70;99.90
24410;DHT22;12543;53.364;-1.504;2023-05-02T03:49:02;10.70;99.90
24410;DHT22;12543;53.364;-1.504;2023-05-02T03:51:29;10.70;99.90
24410;DHT22;12543;53.364;-1.504;2023-05-02T03:54:00;10.70;99.90
24410;DHT22;12543;53.364;-1.504;2023-05-02T03:56:28;10.70;99.90
24410;DHT22;12543;53.364;-1.504;2023-05-02T03:59:09;10.70;99.90
24410;DHT22;12543;53.364;-1.504;2023-05-02T04:01:37;10.70;99.90
24410;DHT22;12543;53.364;-1.504;2023-05-02T04:04:05;10.70;99.90
24410;DHT22;12543;53.364;-1.504;2023-05-02T04:06:37;10.70;99.90
24410;DHT22;12543;53.364;-1.504;2023-05-02T04:09:06;10.70;99.90
24410;DHT22;12543;53.364;-1.504;2023-05-02T04:11:40;10.60;99.90
24410;DHT22;12543;53.364;-1.504;2023-05-02T04:14:09;10.60;99.90
24410;DHT22;12543;53.364;-1.504;2023-05-02T04:16:36;10.60;99.90
24410;DHT22;12543;53.364;-1.504;2023-05-02T04:19:03;10.60;99.90
24410;DHT22;12543;53.364;-1.504;2023-05-02T04:21:31;10.60;99.90
24410;DHT22;12543;53.364;-1.504;2023-05-02T04:23:58;10.60;99.90
24410;DHT22;12543;53.364;-1.504;2023-05-02T04:26:27;10.60;99.90
24410;DHT22;12543;53.364;-1.504;2023-05-02T04:29:01;10.50;99.90
24410;DHT22;12543;53.364;-1.504;2023-05-02T04:31:28;10.50;99.90
24410;DHT22;12543;53.364;-1.504;2023-05-02T04:33:56;10.50;99.90
24410;DHT22;12543;53.364;-1.504;2023-05-02T04:36:27;10.50;99.90
24410;DHT22;12543;53.364;-1.504;2023-05-02T04:38:54;10.60;99.90
24410;DHT22;12543;53.364;-1.504;2023-05-02T04:41:21;10.50;99.90
24410;DHT22;12543;53.364;-1.504;2023-05-02T04:43:56;10.50;99.90
24410;DHT22;12543;53.364;-1.504;2023-05-02T04:46:24;10.50;99.90
24410;DHT22;12543;53.364;-1.504;2023-05-02T04:48:52;10.50;99.90
24410;DHT22;12543;53.364;-1.504;2023-05-02T04:51:25;10.50;99.90
24410;DHT22;12543;53.364;-1.504;2023-05-02T04:53:54;10.50;99.90
24410;DHT22;12543;53.364;-1.504;2023-05-02T04:56:21;10.40;99.90
24410;DHT22;12543;53.364;-1.504;2023-05-02T04:58:48;10.40;99.90
24410;DHT22;12543;53.364;-1.504;2023-05-02T05:01:15;10.40;99.90
24410;DHT22;12543;53.364;-1.504;2023-05-02T05:03:44;10.40;99.90
24410;DHT22;12543;53.364;-1.504;2023-05-02T05:06:13;10.40;99.90
24410;DHT22;12543;53.364;-1.504;2023-05-02T05:08:42;10.40;99.90
24410;DHT22;12543;53.364;-1.504;2023-05-02T05:11:12;10.40;99.90
24410;DHT22;12543;53.364;-1.504;2023-05-02T05:13:40;10.40;99.90
24410;DHT22;12543;53.364;-1.504;2023-05-02T05:16:09;10.40;99.90
24410;DHT22;12543;53.364;-1.504;2023-05-02T05:18:42;10.40;99.90
24410;DHT22;12543;53.364;-1.504;2023-05-02T05:21:11;10.40;99.90
24410;DHT22;12543;53.364;-1.504;2023-05-02T05:23:39;10.40;99.90
24410;DHT22;12543;53.364;-1.504;2023-05-02T05:26:15;10.40;99.90
24410;DHT22;12543;53.364;-1.504;2023-05-02T05:28:45;10.40;99.90
24410;DHT22;12543;53.364;-1.504;2023-05-02T05:31:13;10.40;99.90
24410;DHT22;12543;53.364;-1.504;2023-05-02T05:33:47;10.40;99.90
24410;DHT22;12543;53.364;-1.504;2023-05-02T05:36:15;10.40;99.90
24410;DHT22;12543;53.364;-1.504;2023-05-02T05:38:42;10.30;99.90
24410;DHT22;12543;53.364;-1.504;2023-05-02T05:41:15;10.40;99.90
24410;DHT22;12543;53.364;-1.504;2023-05-02T05:43:46;10.30;99.90
24410;DHT22;12543;53.364;-1.504;2023-05-02T05:46:13;10.30;99.90
24410;DHT22;12543;53.364;-1.504;2023-05-02T05:48:40;10.30;99.90
24410;DHT22;12543;53.364;-1.504;2023-05-02T05:51:08;10.30;99.90
24410;DHT22;12543;53.364;-1.504;2023-05-02T05:53:35;10.30;99.90
24410;DHT22;12543;53.364;-1.504;2023-05-02T05:56:09;10.30;99.90
24410;DHT22;12543;53.364;-1.504;2023-05-02T05:58:48;10.30;99.90
24410;DHT22;12543;53.364;-1.504;2023-05-02T06:01:15;10.40;99.90
24410;DHT22;12543;53.364;-1.504;2023-05-02T06:03:43;10.30;99.90
24410;DHT22;12543;53.364;-1.504;2023-05-02T06:06:10;10.30;99.90
24410;DHT22;12543;53.364;-1.504;2023-05-02T06:08:37;10.30;99.90
24410;DHT22;12543;53.364;-1.504;2023-05-02T06:11:08;10.30;99.90
24410;DHT22;12543;53.364;-1.504;2023-05-02T06:13:37;10.30;99.90
24410;DHT22;12543;53.364;-1.504;2023-05-02T06:16:04;10.30;99.90
24410;DHT22;12543;53.364;-1.504;2023-05-02T06:18:32;10.30;99.90
24410;DHT22;12543;53.364;-1.504;2023-05-02T06:21:03;10.30;99.90
24410;DHT22;12543;53.364;-1.504;2023-05-02T06:23:30;10.30;99.90
24410;DHT22;12543;53.364;-1.504;2023-05-02T06:25:59;10.30;99.90
24410;DHT22;12543;53.364;-1.504;2023-05-02T06:28:27;10.30;99.90
24410;DHT22;12543;53.364;-1.504;2023-05-02T06:31:03;10.30;99.90
24410;DHT22;12543;53.364;-1.504;2023-05-02T06:33:32;10.30;99.90
24410;DHT22;12543;53.364;-1.504;2023-05-02T06:35:59;10.30;99.90
24410;DHT22;12543;53.364;-1.504;2023-05-02T06:38:27;10.30;99.90
24410;DHT22;12543;53.364;-1.504;2023-05-02T06:40:55;10.30;99.90
24410;DHT22;12543;53.364;-1.504;2023-05-02T06:43:22;10.30;99.90
24410;DHT22;12543;53.364;-1.504;2023-05-02T06:45:51;10.30;99.90
24410;DHT22;12543;53.364;-1.504;2023-05-02T06:48:18;10.30;99.90
24410;DHT22;12543;53.364;-1.504;2023-05-02T06:50:45;10.30;99.90
24410;DHT22;12543;53.364;-1.504;2023-05-02T06:53:12;10.30;99.90
24410;DHT22;12543;53.364;-1.504;2023-05-02T06:55:39;10.30;99.90
24410;DHT22;12543;53.364;-1.504;2023-05-02T06:58:06;10.30;99.90
24410;DHT22;12543;53.364;-1.504;2023-05-02T07:00:33;10.40;99.90
24410;DHT22;12543;53.364;-1.504;2023-05-02T07:03:00;10.30;99.90
24410;DHT22;12543;53.364;-1.504;2023-05-02T07:05:28;10.40;99.90
24410;DHT22;12543;53.364;-1.504;2023-05-02T07:07:55;10.40;99.90
24410;DHT22;12543;53.364;-1.504;2023-05-02T07:10:22;10.40;99.90
24410;DHT22;12543;53.364;-1.504;2023-05-02T07:12:49;10.40;99.90
24410;DHT22;12543;53.364;-1.504;2023-05-02T07:15:16;10.40;99.90
24410;DHT22;12543;53.364;-1.504;2023-05-02T07:17:43;10.50;99.90
24410;DHT22;12543;53.364;-1.504;2023-05-02T07:20:13;10.50;99.90
24410;DHT22;12543;53.364;-1.504;2023-05-02T07:22:41;10.50;99.90
24410;DHT22;12543;53.364;-1.504;2023-05-02T07:25:08;10.50;99.90
24410;DHT22;12543;53.364;-1.504;2023-05-02T07:27:35;10.50;99.90
24410;DHT22;12543;53.364;-1.504;2023-05-02T07:30:02;10.60;99.90
24410;DHT22;12543;53.364;-1.504;2023-05-02T07:32:30;10.60;99.90
24410;DHT22;12543;53.364;-1.504;2023-05-02T07:34:57;10.70;99.90
24410;DHT22;12543;53.364;-1.504;2023-05-02T07:37:24;10.70;99.90
24410;DHT22;12543;53.364;-1.504;2023-05-02T07:39:51;10.80;99.90
24410;DHT22;12543;53.364;-1.504;2023-05-02T07:42:18;10.80;99.90
24410;DHT22;12543;53.364;-1.504;2023-05-02T07:44:45;10.90;99.90
24410;DHT22;12543;53.364;-1.504;2023-05-02T07:47:12;10.90;99.90
24410;DHT22;12543;53.364;-1.504;2023-05-02T07:49:39;11.00;99.90
24410;DHT22;12543;53.364;-1.504;2023-05-02T07:52:06;11.00;99.90
24410;DHT22;12543;53.364;-1.504;2023-05-02T07:54:32;11.10;99.90
24410;DHT22;12543;53.364;-1.504;2023-05-02T07:56:59;11.10;99.90
24410;DHT22;12543;53.364;-1.504;2023-05-02T07:59:29;11.10;99.90
24410;DHT22;12543;53.364;-1.504;2023-05-02T08:01:56;11.10;99.90
24410;DHT22;12543;53.364;-1.504;2023-05-02T08:04:23;11.10;99.90
24410;DHT22;12543;53.364;-1.504;2023-05-02T08:06:51;11.20;99.90
24410;DHT22;12543;53.364;-1.504;2023-05-02T08:09:18;11.20;99.90
24410;DHT22;12543;53.364;-1.504;2023-05-02T08:11:45;11.20;99.90
24410;DHT22;12543;53.364;-1.504;2023-05-02T08:14:12;11.20;99.90
24410;DHT22;12543;53.364;-1.504;2023-05-02T08:16:46;11.30;99.90
24410;DHT22;12543;53.364;-1.504;2023-05-02T08:19:16;11.30;99.90
24410;DHT22;12543;53.364;-1.504;2023-05-02T08:21:43;11.30;99.90
24410;DHT22;12543;53.364;-1.504;2023-05-02T08:24:10;11.30;99.90
24410;DHT22;12543;53.364;-1.504;2023-05-02T08:26:37;11.30;99.90
24410;DHT22;12543;53.364;-1.504;2023-05-02T08:29:04;11.30;99.90
24410;DHT22;12543;53.364;-1.504;2023-05-02T08:31:31;11.40;99.90
24410;DHT22;12543;53.364;-1.504;2023-05-02T08:33:59;11.40;99.90
24410;DHT22;12543;53.364;-1.504;2023-05-02T08:36:26;11.40;99.90
24410;DHT22;12543;53.364;-1.504;2023-05-02T08:38:54;11.40;99.90
24410;DHT22;12543;53.364;-1.504;2023-05-02T08:41:24;11.40;99.90
24410;DHT22;12543;53.364;-1.504;2023-05-02T08:43:51;11.40;99.90
24410;DHT22;12543;53.364;-1.504;2023-05-02T08:46:18;11.40;99.90
24410;DHT22;12543;53.364;-1.504;2023-05-02T08:48:48;11.40;99.90
24410;DHT22;12543;53.364;-1.504;2023-05-02T08:51:16;11.40;99.90
24410;DHT22;12543;53.364;-1.504;2023-05-02T08:53:43;11.40;99.90
24410;DHT22;12543;53.364;-1.504;2023-05-02T08:56:11;11.40;99.90
24410;DHT22;12543;53.364;-1.504;2023-05-02T08:58:41;11.40;99.90
24410;DHT22;12543;53.364;-1.504;2023-05-02T09:01:09;11.40;99.90
24410;DHT22;12543;53.364;-1.504;2023-05-02T09:03:38;11.40;99.90
24410;DHT22;12543;53.364;-1.504;2023-05-02T09:06:18;11.40;99.90
24410;DHT22;12543;53.364;-1.504;2023-05-02T09:08:47;11.40;99.90
24410;DHT22;12543;53.364;-1.504;2023-05-02T09:11:15;11.40;99.90
24410;DHT22;12543;53.364;-1.504;2023-05-02T09:13:43;11.40;99.90
24410;DHT22;12543;53.364;-1.504;2023-05-02T09:16:12;11.50;99.90
24410;DHT22;12543;53.364;-1.504;2023-05-02T09:18:43;11.60;99.90
24410;DHT22;12543;53.364;-1.504;2023-05-02T09:21:10;11.60;99.90
24410;DHT22;12543;53.364;-1.504;2023-05-02T09:26:15;11.80;99.90
24410;DHT22;12543;53.364;-1.504;2023-05-02T09:31:11;12.00;99.90
24410;DHT22;12543;53.364;-1.504;2023-05-02T09:33:38;12.10;99.90
24410;DHT22;12543;53.364;-1.504;2023-05-02T09:36:05;12.10;99.90
24410;DHT22;12543;53.364;-1.504;2023-05-02T09:38:33;12.20;99.90
24410;DHT22;12543;53.364;-1.504;2023-05-02T09:41:00;12.20;99.90
24410;DHT22;12543;53.364;-1.504;2023-05-02T09:43:31;12.20;99.90
24410;DHT22;12543;53.364;-1.504;2023-05-02T09:46:10;12.30;99.90
24410;DHT22;12543;53.364;-1.504;2023-05-02T09:51:20;12.60;99.90
24410;DHT22;12543;53.364;-1.504;2023-05-02T09:53:47;12.80;99.90
24410;DHT22;12543;53.364;-1.504;2023-05-02T09:56:14;13.00;99.90
24410;DHT22;12543;53.364;-1.504;2023-05-02T09:58:41;13.30;99.90
24410;DHT22;12543;53.364;-1.504;2023-05-02T10:01:15;13.60;99.90
24410;DHT22;12543;53.364;-1.504;2023-05-02T10:03:45;13.80;99.90
24410;DHT22;12543;53.364;-1.504;2023-05-02T10:06:13;14.10;99.90
24410;DHT22;12543;53.364;-1.504;2023-05-02T10:08:41;14.30;99.90
24410;DHT22;12543;53.364;-1.504;2023-05-02T10:11:11;14.40;99.90
24410;DHT22;12543;53.364;-1.504;2023-05-02T10:13:39;14.50;99.90
24410;DHT22;12543;53.364;-1.504;2023-05-02T10:16:09;14.60;99.90
24410;DHT22;12543;53.364;-1.504;2023-05-02T10:18:47;14.60;99.90
24410;DHT22;12543;53.364;-1.504;2023-05-02T10:21:19;14.60;99.90
24410;DHT22;12543;53.364;-1.504;2023-05-02T10:23:49;14.50;99.90
24410;DHT22;12543;53.364;-1.504;2023-05-02T10:26:19;14.40;99.90
24410;DHT22;12543;53.364;-1.504;2023-05-02T10:28:51;14.40;99.90
24410;DHT22;12543;53.364;-1.504;2023-05-02T10:31:19;14.40;99.90
24410;DHT22;12543;53.364;-1.504;2023-05-02T10:33:50;14.40;99.90
24410;DHT22;12543;53.364;-1.504;2023-05-02T10:36:21;14.30;99.90
24410;DHT22;12543;53.364;-1.504;2023-05-02T10:38:48;14.30;99.90
24410;DHT22;12543;53.364;-1.504;2023-05-02T10:41:17;14.30;99.90
24410;DHT22;12543;53.364;-1.504;2023-05-02T10:43:45;14.20;99.90
24410;DHT22;12543;53.364;-1.504;2023-05-02T10:49:19;14.10;99.90
24410;DHT22;12543;53.364;-1.504;2023-05-02T10:51:48;14.10;99.90
24410;DHT22;12543;53.364;-1.504;2023-05-02T10:59:38;14.00;99.90
24410;DHT22;12543;53.364;-1.504;2023-05-02T11:04:58;14.00;99.90
24410;DHT22;12543;53.364;-1.504;2023-05-02T11:07:29;14.00;99.90
24410;DHT22;12543;53.364;-1.504;2023-05-02T11:12:43;14.00;99.90
24410;DHT22;12543;53.364;-1.504;2023-05-02T11:18:02;14.20;99.90
24410;DHT22;12543;53.364;-1.504;2023-05-02T11:20:30;14.30;99.90
24410;DHT22;12543;53.364;-1.504;2023-05-02T11:22:58;14.40;99.90
24410;DHT22;12543;53.364;-1.504;2023-05-02T11:25:29;14.60;99.90
24410;DHT22;12543;53.364;-1.504;2023-05-02T11:27:56;14.80;99.90
24410;DHT22;12543;53.364;-1.504;2023-05-02T11:35:30;15.30;99.90
24410;DHT22;12543;53.364;-1.504;2023-05-02T11:38:01;15.30;99.90
24410;DHT22;12543;53.364;-1.504;2023-05-02T11:40:29;15.40;99.90
24410;DHT22;12543;53.364;-1.504;2023-05-02T11:42:59;15.50;99.90
24410;DHT22;12543;53.364;-1.504;2023-05-02T11:45:33;15.60;99.90
24410;DHT22;12543;53.364;-1.504;2023-05-02T11:48:03;15.60;99.90
24410;DHT22;12543;53.364;-1.504;2023-05-02T11:50:30;15.70;99.90
24410;DHT22;12543;53.364;-1.504;2023-05-02T11:52:57;15.90;99.90
24410;DHT22;12543;53.364;-1.504;2023-05-02T11:55:24;16.00;99.90
24410;DHT22;12543;53.364;-1.504;2023-05-02T11:57:51;16.20;99.90
24410;DHT22;12543;53.364;-1.504;2023-05-02T12:00:18;16.30;99.90
24410;DHT22;12543;53.364;-1.504;2023-05-02T12:02:45;16.40;99.90
24410;DHT22;12543;53.364;-1.504;2023-05-02T12:05:13;16.50;99.90
24410;DHT22;12543;53.364;-1.504;2023-05-02T12:07:41;16.50;99.90
24410;DHT22;12543;53.364;-1.504;2023-05-02T12:10:11;16.60;99.90
24410;DHT22;12543;53.364;-1.504;2023-05-02T12:12:38;16.60;99.90
24410;DHT22;12543;53.364;-1.504;2023-05-02T12:15:07;16.70;99.90
24410;DHT22;12543;53.364;-1.504;2023-05-02T12:17:38;16.70;99.90
24410;DHT22;12543;53.364;-1.504;2023-05-02T12:20:06;16.70;99.90
24410;DHT22;12543;53.364;-1.504;2023-05-02T12:22:34;16.70;99.90
24410;DHT22;12543;53.364;-1.504;2023-05-02T12:25:01;16.70;99.90
24410;DHT22;12543;53.364;-1.504;2023-05-02T12:27:30;16.70;99.90
24410;DHT22;12543;53.364;-1.504;2023-05-02T12:29:59;16.70;99.90
24410;DHT22;12543;53.364;-1.504;2023-05-02T12:32:27;16.70;99.90
24410;DHT22;12543;53.364;-1.504;2023-05-02T12:34:58;16.70;99.90
24410;DHT22;12543;53.364;-1.504;2023-05-02T12:37:25;16.80;99.90
24410;DHT22;12543;53.364;-1.504;2023-05-02T12:39:55;16.80;99.90
24410;DHT22;12543;53.364;-1.504;2023-05-02T12:42:23;16.80;99.90
24410;DHT22;12543;53.364;-1.504;2023-05-02T12:44:51;16.80;99.90
24410;DHT22;12543;53.364;-1.504;2023-05-02T12:47:19;16.90;99.90
24410;DHT22;12543;53.364;-1.504;2023-05-02T12:52:14;16.90;99.90
24410;DHT22;12543;53.364;-1.504;2023-05-02T12:54:41;17.00;99.90
24410;DHT22;12543;53.364;-1.504;2023-05-02T12:57:10;17.00;99.90
24410;DHT22;12543;53.364;-1.504;2023-05-02T12:59:46;17.10;99.90
24410;DHT22;12543;53.364;-1.504;2023-05-02T13:02:13;17.20;99.90
24410;DHT22;12543;53.364;-1.504;2023-05-02T13:04:40;17.30;99.90
24410;DHT22;12543;53.364;-1.504;2023-05-02T13:07:07;17.30;99.90
24410;DHT22;12543;53.364;-1.504;2023-05-02T13:09:34;17.40;99.90
24410;DHT22;12543;53.364;-1.504;2023-05-02T13:12:01;17.40;99.90
24410;DHT22;12543;53.364;-1.504;2023-05-02T13:14:31;17.40;99.90
24410;DHT22;12543;53.364;-1.504;2023-05-02T13:16:58;17.30;99.90
24410;DHT22;12543;53.364;-1.504;2023-05-02T13:19:25;17.30;99.90
24410;DHT22;12543;53.364;-1.504;2023-05-02T13:21:56;17.20;99.90
24410;DHT22;12543;53.364;-1.504;2023-05-02T13:24:23;17.10;99.90
24410;DHT22;12543;53.364;-1.504;2023-05-02T13:26:50;17.10;99.90
24410;DHT22;12543;53.364;-1.504;2023-05-02T13:29:17;17.00;99.90
24410;DHT22;12543;53.364;-1.504;2023-05-02T13:31:44;17.00;99.90
24410;DHT22;12543;53.364;-1.504;2023-05-02T13:34:11;17.00;99.90
24410;DHT22;12543;53.364;-1.504;2023-05-02T13:36:38;16.90;99.90
24410;DHT22;12543;53.364;-1.504;2023-05-02T13:39:12;16.80;99.90
24410;DHT22;12543;53.364;-1.504;2023-05-02T13:41:41;16.80;99.90
24410;DHT22;12543;53.364;-1.504;2023-05-02T13:44:08;16.70;99.90
24410;DHT22;12543;53.364;-1.504;2023-05-02T13:46:35;16.70;99.90
24410;DHT22;12543;53.364;-1.504;2023-05-02T13:49:03;16.60;99.90
24410;DHT22;12543;53.364;-1.504;2023-05-02T13:51:31;16.60;99.90
24410;DHT22;12543;53.364;-1.504;2023-05-02T13:53:58;16.60;99.90
24410;DHT22;12543;53.364;-1.504;2023-05-02T13:56:25;16.50;99.90
24410;DHT22;12543;53.364;-1.504;2023-05-02T13:58:52;16.40;99.90
24410;DHT22;12543;53.364;-1.504;2023-05-02T14:01:19;16.40;99.90
24410;DHT22;12543;53.364;-1.504;2023-05-02T14:03:46;16.30;99.90
24410;DHT22;12543;53.364;-1.504;2023-05-02T14:06:13;16.20;99.90
24410;DHT22;12543;53.364;-1.504;2023-05-02T14:08:40;16.10;99.90
24410;DHT22;12543;53.364;-1.504;2023-05-02T14:11:07;16.00;99.90
24410;DHT22;12543;53.364;-1.504;2023-05-02T14:13:34;16.00;99.90
24410;DHT22;12543;53.364;-1.504;2023-05-02T14:16:01;15.90;99.90
24410;DHT22;12543;53.364;-1.504;2023-05-02T14:18:28;15.80;99.90
24410;DHT22;12543;53.364;-1.504;2023-05-02T14:20:55;15.80;99.90
24410;DHT22;12543;53.364;-1.504;2023-05-02T14:23:25;15.70;99.90
24410;DHT22;12543;53.364;-1.504;2023-05-02T14:25:55;15.60;99.90
24410;DHT22;12543;53.364;-1.504;2023-05-02T14:28:22;15.50;99.90
24410;DHT22;12543;53.364;-1.504;2023-05-02T14:30:49;15.50;99.90
24410;DHT22;12543;53.364;-1.504;2023-05-02T14:33:16;15.40;99.90
24410;DHT22;12543;53.364;-1.504;2023-05-02T14:35:43;15.30;99.90
24410;DHT22;12543;53.364;-1.504;2023-05-02T14:38:11;15.30;99.90
24410;DHT22;12543;53.364;-1.504;2023-05-02T14:40:38;15.20;99.90
24410;DHT22;12543;53.364;-1.504;2023-05-02T14:43:05;15.20;99.90
24410;DHT22;12543;53.364;-1.504;2023-05-02T14:45:32;15.20;99.90
24410;DHT22;12543;53.364;-1.504;2023-05-02T14:48:00;15.20;99.90
24410;DHT22;12543;53.364;-1.504;2023-05-02T14:50:27;15.20;99.90
24410;DHT22;12543;53.364;-1.504;2023-05-02T14:52:54;15.20;99.90
24410;DHT22;12543;53.364;-1.504;2023-05-02T14:55:21;15.20;99.90
24410;DHT22;12543;53.364;-1.504;2023-05-02T14:57:47;15.20;99.90
24410;DHT22;12543;53.364;-1.504;2023-05-02T15:00:15;15.20;99.90
24410;DHT22;12543;53.364;-1.504;2023-05-02T15:02:42;15.10;99.90
24410;DHT22;12543;53.364;-1.504;2023-05-02T15:05:09;15.10;99.90
24410;DHT22;12543;53.364;-1.504;2023-05-02T15:07:38;15.20;99.90
24410;DHT22;12543;53.364;-1.504;2023-05-02T15:10:05;15.20;99.90
24410;DHT22;12543;53.364;-1.504;2023-05-02T15:12:32;15.10;99.90
24410;DHT22;12543;53.364;-1.504;2023-05-02T15:14:59;15.10;99.90
24410;DHT22;12543;53.364;-1.504;2023-05-02T15:17:26;15.10;99.90
24410;DHT22;12543;53.364;-1.504;2023-05-02T15:19:53;15.20;99.90
24410;DHT22;12543;53.364;-1.504;2023-05-02T15:22:23;15.20;99.90
24410;DHT22;12543;53.364;-1.504;2023-05-02T15:24:52;15.20;99.90
24410;DHT22;12543;53.364;-1.504;2023-05-02T15:27:19;15.20;99.90
24410;DHT22;12543;53.364;-1.504;2023-05-02T15:29:46;15.20;99.90
24410;DHT22;12543;53.364;-1.504;2023-05-02T15:32:13;15.20;99.90
24410;DHT22;12543;53.364;-1.504;2023-05-02T15:34:40;15.20;99.90
24410;DHT22;12543;53.364;-1.504;2023-05-02T15:37:07;15.10;99.90
24410;DHT22;12543;53.364;-1.504;2023-05-02T15:39:33;15.20;99.90
24410;DHT22;12543;53.364;-1.504;2023-05-02T15:42:04;15.10;99.90
24410;DHT22;12543;53.364;-1.504;2023-05-02T15:44:33;15.10;99.90
24410;DHT22;12543;53.364;-1.504;2023-05-02T15:47:00;15.10;99.90
24410;DHT22;12543;53.364;-1.504;2023-05-02T15:49:27;15.10;99.90
24410;DHT22;12543;53.364;-1.504;2023-05-02T15:51:58;15.00;99.90
24410;DHT22;12543;53.364;-1.504;2023-05-02T15:54:25;15.00;99.90
24410;DHT22;12543;53.364;-1.504;2023-05-02T15:56:52;14.90;99.90
24410;DHT22;12543;53.364;-1.504;2023-05-02T15:59:19;14.80;99.90
24410;DHT22;12543;53.364;-1.504;2023-05-02T16:01:46;14.70;99.90
24410;DHT22;12543;53.364;-1.504;2023-05-02T16:04:13;14.60;99.90
24410;DHT22;12543;53.364;-1.504;2023-05-02T16:06:41;14.60;99.90
24410;DHT22;12543;53.364;-1.504;2023-05-02T16:09:08;14.60;99.90
24410;DHT22;12543;53.364;-1.504;2023-05-02T16:11:35;14.50;99.90
24410;DHT22;12543;53.364;-1.504;2023-05-02T16:14:02;14.50;99.90
24410;DHT22;12543;53.364;-1.504;2023-05-02T16:16:29;14.50;99.90
24410;DHT22;12543;53.364;-1.504;2023-05-02T16:18:56;14.50;99.90